Vicksburg, Indiana
Current Conditions -  °F | °C
As of 6:15 PM on Thursday 27 Nov 2014 (Local Time) from KDCY Reporting Station
Overcast Overcast  
Wind Chill: 21°   Ceiling: 4100
Heat Index: 28°   Visibility: 10mi
Dew Point: 25°   Wind: 7mph
Humidity: 88%   Direction: 290°WNW
Pressure: 30.44"   Gusts: NA
Location:  39.0608°N, 87.1852°W
Report Text: KDCY 272315Z AUTO 29006KT 10SM OVC041 M02/M04 A3044 RMK AO2 T10201037
Loading
Personal Weather Stations






























Interactive Weather Map New forecast layout! Learn more

10-Day Weather Forecast

Advertisements
Track Severe Weather on mobile